createdAt,value
2018-12-16T00:00:29.105Z,90.45
2018-12-16T00:02:56.776Z,103.78
2018-12-16T00:05:24.185Z,102.00
2018-12-16T00:07:51.588Z,102.62
2018-12-16T00:10:18.998Z,104.55
2018-12-16T00:12:46.367Z,98.17
2018-12-16T00:16:38.242Z,104.17
2018-12-16T00:19:07.010Z,95.07
2018-12-16T00:21:34.539Z,100.47
2018-12-16T00:24:01.922Z,100.92
2018-12-16T00:27:33.386Z,109.65
2018-12-16T00:30:00.792Z,92.50
2018-12-16T00:32:28.139Z,102.90
2018-12-16T00:34:55.497Z,104.92
2018-12-16T00:37:22.869Z,109.72
2018-12-16T00:39:50.196Z,97.67
2018-12-16T00:42:17.575Z,103.20
2018-12-16T00:44:44.947Z,99.03
2018-12-16T00:47:12.412Z,104.25
2018-12-16T00:49:39.860Z,101.27
2018-12-16T00:52:07.304Z,101.82
2018-12-16T00:54:34.683Z,103.22
2018-12-16T00:57:02.141Z,105.70
2018-12-16T00:59:29.566Z,102.47
2018-12-16T01:01:56.927Z,103.42
2018-12-16T01:04:24.302Z,107.43
2018-12-16T01:06:52.039Z,107.15
2018-12-16T01:09:19.572Z,100.33
2018-12-16T01:11:46.994Z,105.35
2018-12-16T01:14:14.437Z,106.12
2018-12-16T01:16:42.461Z,104.90
2018-12-16T01:19:09.851Z,103.35
2018-12-16T01:21:37.309Z,107.12
2018-12-16T01:24:04.782Z,105.97
2018-12-16T01:26:32.193Z,107.87
2018-12-16T01:30:24.000Z,107.47
2018-12-16T01:32:51.843Z,108.57
2018-12-16T01:35:19.296Z,101.10
2018-12-16T01:37:46.767Z,104.65
2018-12-16T01:40:14.185Z,103.50
2018-12-16T01:42:41.597Z,100.05
2018-12-16T01:45:09.159Z,102.78
2018-12-16T01:47:36.569Z,100.87
2018-12-16T01:50:04.234Z,109.00
2018-12-16T01:52:31.759Z,104.05
2018-12-16T01:54:59.233Z,104.85
2018-12-16T01:57:26.573Z,105.15
2018-12-16T01:59:54.046Z,110.15
2018-12-16T02:02:21.394Z,104.65
2018-12-16T02:04:48.767Z,97.97
2018-12-16T02:07:16.208Z,98.10
2018-12-16T02:09:43.540Z,101.97
2018-12-16T02:12:10.931Z,98.72
2018-12-16T02:14:38.366Z,104.07
2018-12-16T02:17:05.773Z,97.40
2018-12-16T02:19:33.212Z,102.97
2018-12-16T02:22:00.622Z,105.72
2018-12-16T02:24:28.015Z,100.55
2018-12-16T02:26:55.559Z,96.28
2018-12-16T02:29:22.892Z,96.35
2018-12-16T02:31:50.248Z,94.80
2018-12-16T02:34:17.618Z,102.30
2018-12-16T02:36:44.970Z,93.05
2018-12-16T02:39:12.302Z,93.22
2018-12-16T02:41:39.676Z,96.70
2018-12-16T02:44:07.375Z,98.72
2018-12-16T02:46:34.799Z,97.95
2018-12-16T02:49:02.128Z,94.75
2018-12-16T02:51:29.569Z,100.42
2018-12-16T02:53:56.953Z,93.00
2018-12-16T02:56:24.380Z,97.45
2018-12-16T02:58:51.759Z,92.25
2018-12-16T03:01:19.132Z,101.70
2018-12-16T03:03:46.496Z,92.85
2018-12-16T03:06:13.826Z,99.52
2018-12-16T03:08:41.195Z,94.87
2018-12-16T03:11:08.536Z,94.55
2018-12-16T03:13:35.935Z,92.55
2018-12-16T03:16:03.375Z,91.22
2018-12-16T03:18:30.737Z,92.67
2018-12-16T03:20:58.199Z,87.88
2018-12-16T03:23:25.714Z,89.67
2018-12-16T03:25:53.121Z,89.05
2018-12-16T03:28:20.565Z,94.70
2018-12-16T03:30:48.032Z,96.42
2018-12-16T03:33:15.450Z,93.52
2018-12-16T03:35:42.795Z,86.87
2018-12-16T03:38:10.150Z,98.97
2018-12-16T03:40:37.530Z,95.67
2018-12-16T03:43:04.885Z,96.40
2018-12-16T03:45:32.462Z,93.65
2018-12-16T03:47:59.889Z,90.70
2018-12-16T03:50:27.235Z,97.02
2018-12-16T03:52:54.569Z,94.22
2018-12-16T03:55:21.970Z,88.78
2018-12-16T03:57:49.303Z,92.35
2018-12-16T04:00:16.662Z,94.52
2018-12-16T04:02:44.108Z,90.20
2018-12-16T04:05:11.571Z,89.90
2018-12-16T04:07:38.957Z,93.55
2018-12-16T04:10:06.400Z,87.85
2018-12-16T04:12:33.789Z,91.28
2018-12-16T04:15:01.559Z,89.75
2018-12-16T04:17:29.063Z,88.97
2018-12-16T04:19:56.444Z,91.28
2018-12-16T04:22:23.901Z,87.65
2018-12-16T04:24:51.338Z,91.65
2018-12-16T04:27:18.696Z,85.77
2018-12-16T04:29:46.090Z,86.02
2018-12-16T04:32:13.512Z,92.35
2018-12-16T04:34:40.953Z,90.00
2018-12-16T04:37:08.367Z,90.07
2018-12-16T04:39:35.804Z,84.32
2018-12-16T04:42:03.231Z,96.57
2018-12-16T04:44:30.587Z,91.63
2018-12-16T04:46:58.000Z,85.77
2018-12-16T04:49:25.391Z,93.67
2018-12-16T04:51:52.856Z,86.22
2018-12-16T04:54:20.195Z,87.25
2018-12-16T04:56:47.607Z,90.10
2018-12-16T04:59:15.027Z,86.55
2018-12-16T05:01:42.423Z,87.17
2018-12-16T05:04:09.854Z,85.50
2018-12-16T05:06:37.445Z,87.10
2018-12-16T05:09:06.331Z,82.57
2018-12-16T05:11:33.761Z,87.57
2018-12-16T05:14:01.221Z,87.88
2018-12-16T05:16:29.568Z,89.80
2018-12-16T05:18:56.903Z,89.15
2018-12-16T05:21:24.267Z,84.75
2018-12-16T05:23:51.631Z,83.20
2018-12-16T05:26:18.977Z,84.55
2018-12-16T05:28:46.330Z,80.05
2018-12-16T05:31:13.951Z,84.10
2018-12-16T05:33:41.385Z,86.22
2018-12-16T05:36:08.920Z,82.60
2018-12-16T05:38:36.297Z,86.75
2018-12-16T05:41:03.619Z,84.05
2018-12-16T05:43:30.975Z,84.45
2018-12-16T05:45:58.345Z,87.70
2018-12-16T05:48:25.701Z,85.87
2018-12-16T05:50:53.032Z,92.10
2018-12-16T05:53:20.396Z,90.60
2018-12-16T05:55:47.758Z,85.97
2018-12-16T05:58:15.098Z,83.25
2018-12-16T06:00:42.578Z,83.20
2018-12-16T06:03:09.906Z,85.32
2018-12-16T06:05:37.293Z,85.12
2018-12-16T06:08:04.646Z,89.87
2018-12-16T06:10:31.975Z,87.15
2018-12-16T06:12:59.613Z,84.47
2018-12-16T06:15:27.000Z,90.15
2018-12-16T06:17:54.345Z,89.50
2018-12-16T06:20:21.752Z,84.47
2018-12-16T06:22:49.163Z,84.05
2018-12-16T06:25:16.515Z,85.77
2018-12-16T06:27:43.869Z,86.75
2018-12-16T06:30:11.683Z,86.20
2018-12-16T06:32:39.097Z,95.00
2018-12-16T06:35:06.439Z,85.70
2018-12-16T06:37:33.795Z,90.90
2018-12-16T06:40:01.170Z,85.55
2018-12-16T06:42:28.552Z,84.55
2018-12-16T06:44:55.974Z,88.37
2018-12-16T06:47:23.323Z,85.22
2018-12-16T06:49:50.684Z,87.17
2018-12-16T06:52:18.030Z,85.47
2018-12-16T06:54:45.433Z,87.25
2018-12-16T06:57:12.847Z,85.12
2018-12-16T06:59:40.194Z,89.22
2018-12-16T07:02:07.581Z,86.78
2018-12-16T07:04:34.911Z,91.10
2018-12-16T07:07:02.280Z,87.17
2018-12-16T07:09:29.692Z,85.95
2018-12-16T07:11:57.076Z,88.45
2018-12-16T07:14:24.439Z,91.60
2018-12-16T07:16:51.782Z,93.65
2018-12-16T07:19:19.150Z,94.03
2018-12-16T07:21:46.537Z,94.28
2018-12-16T07:24:14.045Z,95.17
2018-12-16T07:26:41.436Z,93.70
2018-12-16T07:29:08.877Z,91.37
2018-12-16T07:31:36.239Z,94.37
2018-12-16T07:34:03.600Z,100.55
2018-12-16T07:36:31.169Z,108.80
2018-12-16T07:38:58.590Z,102.30
2018-12-16T07:41:26.235Z,116.15
2018-12-16T07:45:17.953Z,107.97
2018-12-16T07:47:46.340Z,108.40
2018-12-16T07:50:13.941Z,104.38
2018-12-16T07:52:41.348Z,100.18
2018-12-16T07:55:08.846Z,99.45
2018-12-16T07:57:36.240Z,104.67
2018-12-16T08:00:04.758Z,99.60
2018-12-16T08:02:36.056Z,98.85
2018-12-16T08:05:03.638Z,97.57
2018-12-16T08:07:31.052Z,99.42
2018-12-16T08:09:58.822Z,105.90
2018-12-16T08:12:26.187Z,95.00
2018-12-16T08:14:53.633Z,96.95
2018-12-16T08:17:20.976Z,95.20
2018-12-16T08:19:48.303Z,92.67
2018-12-16T08:22:16.043Z,96.82
2018-12-16T08:24:43.458Z,97.50
2018-12-16T08:27:11.065Z,100.30
2018-12-16T08:29:38.582Z,92.37
2018-12-16T08:32:06.030Z,94.47
2018-12-16T08:34:33.388Z,99.15
2018-12-16T08:37:00.736Z,99.57
2018-12-16T08:39:28.076Z,102.87
2018-12-16T08:41:55.432Z,99.13
2018-12-16T08:44:22.799Z,110.78
2018-12-16T08:46:50.146Z,98.97
2018-12-16T08:49:17.862Z,102.50
2018-12-16T08:51:45.288Z,99.17
2018-12-16T08:54:12.738Z,101.82
2018-12-16T08:56:40.186Z,91.82
2018-12-16T08:59:07.560Z,94.47
2018-12-16T09:01:35.005Z,99.97
2018-12-16T09:04:02.355Z,96.63
2018-12-16T09:06:29.719Z,94.80
2018-12-16T09:08:57.316Z,92.30
2018-12-16T09:11:24.743Z,91.40
2018-12-16T09:13:52.170Z,99.00
2018-12-16T09:16:19.537Z,102.42
2018-12-16T09:18:46.975Z,94.52
2018-12-16T09:21:14.373Z,97.67
2018-12-16T09:23:41.806Z,100.35
2018-12-16T09:26:11.155Z,100.67
2018-12-16T09:28:38.668Z,93.05
2018-12-16T09:31:06.008Z,95.95
2018-12-16T09:33:33.388Z,91.72
2018-12-16T09:36:01.094Z,94.60
2018-12-16T09:38:28.479Z,94.62
2018-12-16T09:40:55.981Z,88.45
2018-12-16T09:43:23.409Z,94.37
2018-12-16T09:45:50.752Z,88.60
2018-12-16T09:48:18.163Z,97.83
2018-12-16T09:50:45.510Z,95.77
2018-12-16T09:53:12.916Z,95.80
2018-12-16T09:55:40.296Z,98.70
2018-12-16T09:58:07.737Z,88.87
2018-12-16T10:00:35.303Z,89.15
2018-12-16T10:03:02.692Z,90.10
2018-12-16T10:05:30.207Z,90.55
2018-12-16T10:07:57.551Z,88.25
2018-12-16T10:10:25.032Z,89.07
2018-12-16T10:12:52.370Z,88.52
2018-12-16T10:15:19.748Z,89.52
2018-12-16T10:17:47.167Z,96.42
2018-12-16T10:20:14.555Z,89.10
2018-12-16T10:22:41.980Z,95.72
2018-12-16T10:25:09.371Z,93.87
2018-12-16T10:27:36.807Z,98.05
2018-12-16T10:30:04.975Z,96.22
2018-12-16T10:32:32.628Z,92.47
2018-12-16T10:35:00.091Z,94.83
2018-12-16T10:37:27.782Z,98.27
2018-12-16T10:39:55.214Z,95.70
2018-12-16T10:42:23.151Z,94.52
2018-12-16T10:44:50.843Z,91.35
2018-12-16T10:47:18.416Z,93.82
2018-12-16T10:49:45.814Z,97.97
2018-12-16T10:52:13.203Z,91.70
2018-12-16T10:54:40.570Z,96.35
2018-12-16T10:57:07.897Z,90.55
2018-12-16T10:59:35.258Z,89.97
2018-12-16T11:02:02.637Z,96.90
2018-12-16T11:04:29.959Z,90.77
2018-12-16T11:06:57.441Z,85.70
2018-12-16T11:09:24.866Z,89.32
2018-12-16T11:11:52.384Z,87.20
2018-12-16T11:14:19.745Z,110.35
2018-12-16T11:16:47.194Z,106.53
2018-12-16T11:19:14.621Z,96.92
2018-12-16T11:21:42.161Z,104.43
2018-12-16T11:24:09.552Z,102.80
2018-12-16T11:26:36.918Z,101.00
2018-12-16T11:29:04.313Z,102.27
2018-12-16T11:31:31.705Z,94.00
2018-12-16T11:33:59.062Z,93.67
2018-12-16T11:36:26.542Z,101.03
2018-12-16T11:38:54.047Z,91.43
2018-12-16T11:41:21.466Z,88.90
2018-12-16T11:43:49.326Z,97.33
2018-12-16T11:46:16.768Z,100.47
2018-12-16T11:48:44.097Z,94.50
2018-12-16T11:51:11.472Z,99.50
2018-12-16T11:53:38.840Z,90.65
2018-12-16T11:56:06.179Z,97.17
2018-12-16T11:58:33.586Z,102.53
2018-12-16T12:01:01.096Z,95.53
2018-12-16T12:03:29.367Z,115.30
2018-12-16T12:05:56.801Z,99.72
2018-12-16T12:08:24.173Z,96.87
2018-12-16T12:10:51.582Z,90.15
2018-12-16T12:13:18.988Z,90.47
2018-12-16T12:15:46.367Z,90.97
2018-12-16T12:18:13.736Z,105.12
2018-12-16T12:20:41.196Z,94.67
2018-12-16T12:23:08.618Z,97.12
2018-12-16T12:25:35.967Z,94.07
2018-12-16T12:28:03.368Z,96.95
2018-12-16T12:30:30.778Z,89.60
2018-12-16T12:32:58.155Z,94.85
2018-12-16T12:35:25.503Z,97.15
2018-12-16T12:37:52.850Z,88.60
2018-12-16T12:40:20.216Z,90.90
2018-12-16T12:42:47.577Z,94.20
2018-12-16T12:45:15.017Z,105.30
2018-12-16T12:47:42.366Z,100.85
2018-12-16T12:50:09.784Z,95.30
2018-12-16T12:52:37.157Z,98.50
2018-12-16T12:55:04.675Z,98.30
2018-12-16T12:57:32.099Z,91.33
2018-12-16T12:59:59.452Z,91.40
2018-12-16T13:02:26.814Z,93.40
2018-12-16T13:04:54.152Z,93.57
2018-12-16T13:07:21.523Z,93.97
2018-12-16T13:09:49.078Z,94.40
2018-12-16T13:12:16.430Z,95.83
2018-12-16T13:14:43.810Z,95.00
2018-12-16T13:17:11.162Z,96.40
2018-12-16T13:19:38.506Z,100.93
2018-12-16T13:22:05.992Z,100.47
2018-12-16T13:24:33.519Z,100.73
2018-12-16T13:27:01.103Z,96.40
2018-12-16T13:29:28.520Z,93.60
2018-12-16T13:31:55.922Z,99.47
2018-12-16T13:34:23.323Z,92.97
2018-12-16T13:36:50.739Z,92.57
2018-12-16T13:39:18.142Z,97.15
2018-12-16T13:41:45.536Z,89.63
2018-12-16T13:44:12.971Z,107.17
2018-12-16T13:46:40.334Z,99.93
2018-12-16T13:49:07.701Z,99.33
2018-12-16T13:51:35.035Z,98.40
2018-12-16T13:54:02.410Z,102.03
2018-12-16T13:56:29.739Z,101.00
2018-12-16T13:58:57.127Z,97.27
2018-12-16T14:01:24.545Z,100.03
2018-12-16T14:03:51.910Z,98.63
2018-12-16T14:06:19.258Z,97.40
2018-12-16T14:08:46.677Z,99.10
2018-12-16T14:11:14.028Z,93.43
2018-12-16T14:13:41.444Z,96.60
2018-12-16T14:16:08.880Z,95.40
2018-12-16T14:18:36.544Z,98.97
2018-12-16T14:21:04.348Z,98.80
2018-12-16T14:23:31.787Z,100.07
2018-12-16T14:25:59.123Z,99.00
2018-12-16T14:28:26.477Z,109.13
2018-12-16T14:30:53.820Z,96.97
2018-12-16T14:33:21.616Z,101.77
2018-12-16T14:35:48.966Z,102.37
2018-12-16T14:38:16.456Z,97.03
2018-12-16T14:40:43.859Z,98.47
2018-12-16T14:43:11.215Z,105.90
2018-12-16T14:45:38.996Z,95.37
2018-12-16T14:48:06.454Z,104.87
2018-12-16T14:50:33.783Z,120.60
2018-12-16T14:53:01.176Z,114.97
2018-12-16T14:55:28.501Z,95.23
2018-12-16T14:57:55.860Z,107.97
2018-12-16T15:00:23.224Z,100.60
2018-12-16T15:02:50.550Z,96.95
2018-12-16T15:05:17.942Z,111.97
2018-12-16T15:07:45.374Z,104.67
2018-12-16T15:10:12.834Z,110.57
2018-12-16T15:12:40.203Z,100.65
2018-12-16T15:15:08.119Z,105.40
2018-12-16T15:17:42.559Z,101.95
2018-12-16T15:20:05.904Z,102.67
2018-12-16T15:22:33.337Z,102.62
2018-12-16T15:25:00.757Z,95.75
2018-12-16T15:27:28.118Z,105.15
2018-12-16T15:29:55.822Z,119.60
2018-12-16T15:32:24.000Z,106.90
2018-12-16T15:34:51.408Z,107.58
2018-12-16T15:37:18.782Z,104.27
2018-12-16T15:39:46.211Z,109.90
2018-12-16T15:42:13.562Z,98.25
2018-12-16T15:44:40.934Z,107.67
2018-12-16T15:47:08.288Z,111.42
2018-12-16T15:49:35.690Z,98.33
2018-12-16T15:52:03.305Z,97.95
2018-12-16T15:54:30.756Z,109.65
2018-12-16T15:56:58.115Z,107.52
2018-12-16T15:59:25.501Z,98.55
2018-12-16T16:01:53.029Z,109.30
2018-12-16T16:04:21.084Z,128.05
2018-12-16T16:06:48.441Z,134.18
2018-12-16T16:09:15.825Z,121.10
2018-12-16T16:13:07.781Z,109.12
2018-12-16T16:15:35.604Z,100.72
2018-12-16T16:18:03.056Z,104.58
2018-12-16T16:20:30.624Z,115.00
2018-12-16T16:22:57.974Z,113.50
2018-12-16T16:25:25.315Z,99.70
2018-12-16T16:27:52.682Z,102.67
2018-12-16T16:30:20.068Z,102.32
2018-12-16T16:32:47.491Z,104.50
2018-12-16T16:35:14.866Z,99.55
2018-12-16T16:37:42.327Z,100.25
2018-12-16T16:40:09.815Z,111.32
2018-12-16T16:42:37.215Z,106.20
2018-12-16T16:45:05.334Z,102.90
2018-12-16T16:47:32.862Z,105.45
2018-12-16T16:50:00.204Z,102.72
2018-12-16T16:52:27.589Z,106.22
2018-12-16T16:54:55.052Z,102.40
2018-12-16T16:57:22.931Z,102.82
2018-12-16T16:59:50.414Z,97.47
2018-12-16T17:02:17.922Z,102.40
2018-12-16T17:04:46.384Z,103.78
2018-12-16T17:07:13.834Z,91.60
2018-12-16T17:09:41.285Z,103.72
2018-12-16T17:12:08.707Z,97.27
2018-12-16T17:14:36.213Z,146.57
2018-12-16T17:17:03.710Z,106.75
2018-12-16T17:19:31.162Z,101.82
2018-12-16T17:21:58.724Z,105.78
2018-12-16T17:24:26.154Z,104.75
2018-12-16T17:26:53.486Z,103.17
2018-12-16T17:29:20.850Z,126.92
2018-12-16T17:31:48.211Z,155.55
2018-12-16T17:34:15.931Z,135.05
2018-12-16T17:36:43.367Z,122.98
2018-12-16T17:39:10.794Z,117.97
2018-12-16T17:41:38.123Z,106.32
2018-12-16T17:44:05.636Z,104.40
2018-12-16T17:46:33.073Z,130.90
2018-12-16T17:49:00.396Z,147.02
2018-12-16T17:51:27.747Z,129.63
2018-12-16T17:53:55.104Z,133.93
2018-12-16T17:56:22.488Z,138.88
2018-12-16T17:58:49.816Z,132.67
2018-12-16T18:01:17.178Z,121.30
2018-12-16T18:03:44.534Z,121.90
2018-12-16T18:06:11.914Z,102.92
2018-12-16T18:08:39.332Z,105.27
2018-12-16T18:11:06.684Z,102.53
2018-12-16T18:13:34.076Z,106.45
2018-12-16T18:16:01.507Z,99.45
2018-12-16T18:18:29.216Z,97.27
2018-12-16T18:20:56.607Z,98.92
2018-12-16T18:23:29.580Z,97.30
2018-12-16T18:25:53.400Z,98.17
2018-12-16T18:28:20.730Z,99.30
2018-12-16T18:30:48.130Z,96.15
2018-12-16T18:33:15.787Z,116.82
2018-12-16T18:35:43.215Z,105.17
2018-12-16T18:38:10.567Z,103.90
2018-12-16T18:40:37.928Z,98.87
2018-12-16T18:43:05.305Z,108.85
2018-12-16T18:45:32.739Z,105.30
2018-12-16T18:48:00.088Z,102.92
2018-12-16T18:50:27.445Z,102.12
2018-12-16T18:52:54.786Z,104.92
2018-12-16T18:55:22.169Z,109.37
2018-12-16T18:57:49.546Z,106.25
2018-12-16T19:00:16.986Z,101.30
2018-12-16T19:02:44.427Z,99.92
2018-12-16T19:05:11.796Z,106.65
2018-12-16T19:07:39.103Z,98.87
2018-12-16T19:10:06.883Z,105.87
2018-12-16T19:12:34.239Z,103.65
2018-12-16T19:15:02.172Z,96.28
2018-12-16T19:17:29.595Z,103.85
2018-12-16T19:19:56.930Z,95.90
2018-12-16T19:22:24.273Z,106.60
2018-12-16T19:24:51.660Z,103.85
2018-12-16T19:27:19.111Z,103.12
2018-12-16T19:29:46.484Z,119.85
2018-12-16T19:32:14.011Z,109.07
2018-12-16T19:34:41.384Z,105.37
2018-12-16T19:37:08.732Z,102.82
2018-12-16T19:39:36.202Z,102.97
2018-12-16T19:42:03.682Z,107.75
2018-12-16T19:44:31.102Z,101.78
2018-12-16T19:46:58.586Z,102.12
2018-12-16T19:49:26.052Z,100.22
2018-12-16T19:51:53.468Z,104.20
2018-12-16T19:54:21.150Z,108.05
2018-12-16T19:56:48.607Z,101.95
2018-12-16T19:59:16.079Z,116.37
2018-12-16T20:01:43.522Z,118.17
2018-12-16T20:04:16.991Z,115.80
2018-12-16T20:06:44.470Z,124.15
2018-12-16T20:09:11.979Z,131.20
2018-12-16T20:11:39.356Z,178.02
2018-12-16T20:14:06.793Z,148.50
2018-12-16T20:16:34.270Z,144.60
2018-12-16T20:19:02.440Z,140.75
2018-12-16T20:21:29.913Z,118.15
2018-12-16T20:23:57.397Z,104.43
2018-12-16T20:26:25.090Z,110.28
2018-12-16T20:28:52.591Z,109.78
2018-12-16T20:31:20.048Z,96.85
2018-12-16T20:33:47.546Z,104.87
2018-12-16T20:36:14.996Z,110.68
2018-12-16T20:38:42.438Z,104.50
2018-12-16T20:41:09.904Z,109.35
2018-12-16T20:43:37.550Z,112.70
2018-12-16T20:46:05.006Z,103.17
2018-12-16T20:48:32.519Z,102.42
2018-12-16T20:50:59.921Z,100.10
2018-12-16T20:53:27.364Z,104.78
2018-12-16T20:55:54.743Z,105.37
2018-12-16T20:58:22.182Z,114.15
2018-12-16T21:00:49.675Z,101.42
2018-12-16T21:03:17.292Z,97.47
2018-12-16T21:05:44.669Z,104.40
2018-12-16T21:08:12.135Z,100.85
2018-12-16T21:10:39.575Z,111.42
2018-12-16T21:13:12.595Z,122.40
2018-12-16T21:15:45.342Z,116.93
2018-12-16T21:18:18.279Z,124.00
2018-12-16T21:20:45.685Z,163.15
2018-12-16T21:23:13.159Z,142.47
2018-12-16T21:25:40.935Z,119.22
2018-12-16T21:28:08.360Z,108.32
2018-12-16T21:30:35.845Z,108.10
2018-12-16T21:33:03.289Z,103.38
2018-12-16T21:35:30.748Z,109.20
2018-12-16T21:37:58.195Z,110.03
2018-12-16T21:40:25.681Z,106.00
2018-12-16T21:42:53.438Z,108.55
2018-12-16T21:45:20.965Z,107.83
2018-12-16T21:47:48.437Z,103.15
2018-12-16T21:50:15.891Z,103.65
2018-12-16T21:52:43.355Z,105.95
2018-12-16T21:55:10.823Z,105.60
2018-12-16T21:57:38.286Z,104.35
2018-12-16T22:00:07.300Z,101.33
2018-12-16T22:02:34.715Z,105.45
2018-12-16T22:05:02.177Z,103.27
2018-12-16T22:07:30.567Z,99.22
2018-12-16T22:13:28.564Z,95.97
2018-12-16T22:15:56.059Z,101.53
2018-12-16T22:18:23.451Z,93.78
2018-12-16T22:20:50.906Z,98.07
2018-12-16T22:23:18.359Z,102.82
2018-12-16T22:25:46.750Z,99.40
2018-12-16T22:28:14.204Z,98.00
2018-12-16T22:30:41.751Z,100.30
2018-12-16T22:33:09.437Z,102.87
2018-12-16T22:35:36.916Z,104.23
2018-12-16T22:38:04.352Z,98.03
2018-12-16T22:40:31.939Z,95.72
2018-12-16T22:42:59.382Z,105.87
2018-12-16T22:45:26.798Z,107.22
2018-12-16T22:47:54.162Z,107.25
2018-12-16T22:50:21.618Z,105.25
2018-12-16T22:52:49.090Z,104.35
2018-12-16T22:55:16.585Z,109.48
2018-12-16T22:57:47.046Z,112.03
2018-12-16T23:00:20.215Z,101.58
2018-12-16T23:02:47.626Z,98.85
2018-12-16T23:05:15.088Z,95.65
2018-12-16T23:07:42.540Z,98.58
2018-12-16T23:10:09.996Z,104.47
2018-12-16T23:12:37.349Z,100.70
2018-12-16T23:15:05.343Z,97.95
2018-12-16T23:17:32.775Z,99.00
2018-12-16T23:20:05.651Z,98.03
2018-12-16T23:22:33.116Z,93.40
2018-12-16T23:25:00.691Z,93.07
2018-12-16T23:27:28.145Z,92.02
2018-12-16T23:29:55.592Z,92.85
2018-12-16T23:32:23.034Z,89.25
2018-12-16T23:34:50.513Z,104.50
2018-12-16T23:37:18.068Z,95.53
2018-12-16T23:39:45.840Z,91.95
2018-12-16T23:42:13.392Z,98.85
2018-12-16T23:44:40.838Z,92.02
2018-12-16T23:47:08.301Z,98.60
2018-12-16T23:49:35.756Z,94.77
2018-12-16T23:52:03.199Z,98.42
2018-12-16T23:54:30.651Z,96.17
2018-12-16T23:56:58.030Z,93.42
2018-12-16T23:59:25.501Z,100.72
